createdAt,value
2018-04-27T00:00:52.549Z,20.2
2018-04-27T00:01:51.143Z,20.35
2018-04-27T00:02:53.192Z,20.22
2018-04-27T00:03:51.000Z,20.19
2018-04-27T00:04:51.904Z,20.35
2018-04-27T00:05:50.818Z,20.22
2018-04-27T00:06:51.190Z,20.19
2018-04-27T00:07:51.677Z,20.35
2018-04-27T00:08:50.813Z,20.21
2018-04-27T00:09:51.256Z,20.19
2018-04-27T00:10:51.480Z,20.34
2018-04-27T00:11:53.389Z,20.21
2018-04-27T00:12:51.309Z,20.19
2018-04-27T00:13:50.827Z,20.33
2018-04-27T00:14:51.336Z,20.21
2018-04-27T00:15:50.725Z,20.18
2018-04-27T00:16:55.748Z,20.33
2018-04-27T00:17:50.621Z,20.2
2018-04-27T00:18:51.042Z,20.18
2018-04-27T00:20:01.433Z,20.33
2018-04-27T00:20:50.849Z,20.19
2018-04-27T00:21:50.752Z,20.18
2018-04-27T00:22:50.928Z,20.31
2018-04-27T00:23:51.196Z,20.19
2018-04-27T00:24:50.654Z,20.17
2018-04-27T00:25:51.208Z,20.3
2018-04-27T00:26:50.797Z,20.18
2018-04-27T00:27:50.779Z,20.17
2018-04-27T00:28:51.192Z,20.31
2018-04-27T00:29:50.974Z,20.18
2018-04-27T00:30:51.597Z,20.17
2018-04-27T00:31:58.503Z,20.3
2018-04-27T00:32:50.942Z,20.18
2018-04-27T00:33:50.643Z,20.16
2018-04-27T00:34:51.092Z,20.29
2018-04-27T00:35:51.494Z,20.18
2018-04-27T00:36:51.079Z,20.16
2018-04-27T00:37:51.322Z,20.3
2018-04-27T00:38:51.065Z,20.17
2018-04-27T00:39:50.613Z,20.15
2018-04-27T00:40:51.004Z,20.3
2018-04-27T00:41:52.116Z,20.16
2018-04-27T00:42:51.146Z,20.15
2018-04-27T00:43:50.870Z,20.3
2018-04-27T00:44:51.323Z,20.17
2018-04-27T00:45:50.823Z,20.14
2018-04-27T00:46:51.171Z,20.29
2018-04-27T00:47:50.782Z,20.16
2018-04-27T00:48:52.695Z,20.13
2018-04-27T00:49:50.903Z,20.27
2018-04-27T00:50:51.059Z,20.15
2018-04-27T00:51:50.640Z,20.13
2018-04-27T00:52:52.957Z,20.27
2018-04-27T00:53:50.912Z,20.14
2018-04-27T00:54:51.669Z,20.13
2018-04-27T00:55:51.966Z,20.27
2018-04-27T00:56:50.889Z,20.14
2018-04-27T00:57:50.886Z,20.12
2018-04-27T00:58:51.902Z,20.24
2018-04-27T00:59:52.135Z,20.13
2018-04-27T01:00:51.360Z,20.12
2018-04-27T01:01:51.406Z,20.25
2018-04-27T01:02:51.197Z,20.13
2018-04-27T01:03:51.494Z,20.11
2018-04-27T01:04:51.096Z,20.25
2018-04-27T01:05:51.054Z,20.12
2018-04-27T01:06:51.132Z,20.11
2018-04-27T01:07:51.357Z,20.24
2018-04-27T01:08:51.860Z,20.12
2018-04-27T01:09:51.132Z,20.11
2018-04-27T01:10:50.847Z,20.24
2018-04-27T01:11:51.097Z,20.12
2018-04-27T01:12:51.494Z,20.1
2018-04-27T01:13:51.082Z,20.24
2018-04-27T01:14:51.172Z,20.12
2018-04-27T01:15:51.437Z,20.1
2018-04-27T01:16:59.261Z,20.24
2018-04-27T01:23:17.752Z,20.13
2018-04-27T01:24:18.137Z,20.17
2018-04-27T01:25:17.029Z,20.09
2018-04-27T01:26:17.509Z,20.08
2018-04-27T01:27:17.351Z,20.23
2018-04-27T01:28:18.959Z,20.1
2018-04-27T01:29:24.643Z,20.07
2018-04-27T01:30:17.016Z,20.23
2018-04-27T01:31:17.064Z,20.09
2018-04-27T01:32:17.363Z,20.07
2018-04-27T01:33:17.163Z,20.23
2018-04-27T01:34:16.896Z,20.09
2018-04-27T01:35:17.253Z,20.07
2018-04-27T01:36:17.756Z,20.22
2018-04-27T01:37:16.810Z,20.09
2018-04-27T01:38:17.587Z,20.07
2018-04-27T01:39:16.924Z,20.21
2018-04-27T01:40:16.861Z,20.08
2018-04-27T01:41:16.954Z,20.06
2018-04-27T01:42:17.449Z,20.2
2018-04-27T01:43:17.109Z,20.07
2018-04-27T01:44:16.981Z,20.06
2018-04-27T01:45:24.858Z,20.19
2018-04-27T01:46:17.683Z,20.06
2018-04-27T01:47:16.908Z,20.05
2018-04-27T01:48:17.256Z,20.19
2018-04-27T01:49:17.137Z,20.06
2018-04-27T01:50:16.789Z,20.06
2018-04-27T01:51:16.678Z,20.18
2018-04-27T01:52:17.200Z,20.06
2018-04-27T01:53:17.224Z,20.05
2018-04-27T01:54:17.307Z,20.18
2018-04-27T01:55:17.021Z,20.06
2018-04-27T01:56:17.560Z,20.04
2018-04-27T01:57:18.688Z,20.18
2018-04-27T01:58:17.118Z,20.06
2018-04-27T01:59:16.907Z,20.05
2018-04-27T02:00:17.324Z,20.18
2018-04-27T02:01:16.939Z,20.05
2018-04-27T02:02:16.888Z,20.04
2018-04-27T02:03:17.145Z,20.18
2018-04-27T02:04:16.999Z,20.05
2018-04-27T02:05:18.894Z,20.02
2018-04-27T02:06:17.124Z,20.17
2018-04-27T02:07:16.715Z,20.05
2018-04-27T02:08:17.569Z,20.02
2018-04-27T02:09:19.849Z,20.17
2018-04-27T02:10:19.878Z,20.04
2018-04-27T02:11:16.804Z,20.02
2018-04-27T02:12:17.371Z,20.17
2018-04-27T02:13:17.913Z,20.03
2018-04-27T02:14:16.884Z,20.01
2018-04-27T02:15:17.327Z,20.15
2018-04-27T02:16:16.990Z,20.03
2018-04-27T02:22:49.380Z,20.11
2018-04-27T02:23:48.841Z,19.99
2018-04-27T02:24:48.093Z,19.98
2018-04-27T02:25:48.085Z,19.99
2018-04-27T02:26:48.210Z,20.15
2018-04-27T02:27:48.893Z,20
2018-04-27T02:28:48.747Z,19.99
2018-04-27T02:29:48.523Z,20.15
2018-04-27T02:30:48.983Z,20.02
2018-04-27T02:31:49.479Z,20
2018-04-27T02:32:48.551Z,20.13
2018-04-27T02:33:48.513Z,20.01
2018-04-27T02:34:48.217Z,19.99
2018-04-27T02:35:48.678Z,20.14
2018-04-27T02:36:48.521Z,20
2018-04-27T02:37:48.303Z,19.99
2018-04-27T02:38:48.032Z,20.13
2018-04-27T02:39:48.010Z,20
2018-04-27T02:40:47.908Z,19.99
2018-04-27T02:41:48.225Z,20.12
2018-04-27T02:42:47.993Z,20.01
2018-04-27T02:43:48.585Z,19.99
2018-04-27T02:44:48.469Z,20.12
2018-04-27T02:45:48.147Z,20
2018-04-27T02:46:48.592Z,19.98
2018-04-27T02:47:49.170Z,20.12
2018-04-27T02:48:48.168Z,20
2018-04-27T02:49:48.096Z,19.97
2018-04-27T02:50:48.592Z,20.12
2018-04-27T02:51:49.205Z,19.99
2018-04-27T02:52:48.206Z,19.97
2018-04-27T02:53:48.149Z,20.12
2018-04-27T02:54:48.840Z,19.98
2018-04-27T02:55:48.381Z,19.96
2018-04-27T02:56:48.134Z,20.1
2018-04-27T02:57:48.069Z,19.98
2018-04-27T02:58:49.443Z,19.96
2018-04-27T02:59:51.152Z,20.12
2018-04-27T03:00:48.270Z,19.99
2018-04-27T03:01:48.073Z,19.97
2018-04-27T03:02:47.950Z,20.12
2018-04-27T03:03:47.865Z,19.98
2018-04-27T03:04:48.038Z,19.95
2018-04-27T03:05:48.005Z,20.12
2018-04-27T03:06:49.887Z,19.97
2018-04-27T03:07:47.889Z,19.95
2018-04-27T03:08:47.953Z,20.1
2018-04-27T03:09:47.876Z,19.97
2018-04-27T03:10:47.967Z,19.95
2018-04-27T03:11:47.997Z,20.11
2018-04-27T03:12:48.183Z,19.97
2018-04-27T03:13:47.933Z,19.94
2018-04-27T03:14:47.865Z,20.1
2018-04-27T03:15:48.011Z,19.97
2018-04-27T03:16:48.058Z,19.94
2018-04-27T03:17:48.100Z,20.08
2018-04-27T03:18:47.995Z,19.95
2018-04-27T03:19:48.025Z,19.94
2018-04-27T03:20:48.012Z,20.07
2018-04-27T03:21:47.932Z,19.95
2018-04-27T03:22:47.984Z,19.93
2018-04-27T03:23:48.374Z,20.07
2018-04-27T03:24:48.002Z,19.95
2018-04-27T03:25:47.777Z,19.94
2018-04-27T03:26:47.993Z,20.07
2018-04-27T03:27:47.906Z,19.95
2018-04-27T03:28:48.033Z,19.93
2018-04-27T03:29:47.985Z,20.07
2018-04-27T03:30:47.956Z,19.95
2018-04-27T03:31:48.038Z,19.92
2018-04-27T03:32:48.051Z,20.07
2018-04-27T03:33:48.013Z,19.94
2018-04-27T03:34:47.994Z,19.93
2018-04-27T03:35:47.866Z,20.06
2018-04-27T03:36:48.067Z,19.94
2018-04-27T03:37:48.034Z,19.92
2018-04-27T03:38:47.945Z,20.06
2018-04-27T03:39:47.981Z,19.94
2018-04-27T03:40:47.972Z,19.91
2018-04-27T03:41:47.878Z,20.06
2018-04-27T03:42:47.881Z,19.93
2018-04-27T03:43:47.946Z,19.9
2018-04-27T03:44:47.897Z,20.06
2018-04-27T03:45:48.004Z,19.93
2018-04-27T03:46:47.947Z,19.91
2018-04-27T03:47:47.974Z,20.06
2018-04-27T03:48:47.923Z,19.92
2018-04-27T03:49:48.119Z,19.9
2018-04-27T03:50:47.804Z,20.06
2018-04-27T03:51:48.295Z,19.93
2018-04-27T03:52:47.923Z,19.91
2018-04-27T03:53:48.014Z,20.05
2018-04-27T03:54:47.905Z,19.92
2018-04-27T03:55:48.007Z,19.9
2018-04-27T03:56:47.913Z,20.03
2018-04-27T03:57:48.041Z,19.91
2018-04-27T03:58:47.884Z,19.89
2018-04-27T03:59:47.995Z,20.02
2018-04-27T04:00:48.014Z,19.91
2018-04-27T04:01:48.023Z,19.89
2018-04-27T04:02:48.030Z,20.05
2018-04-27T04:03:47.819Z,19.9
2018-04-27T04:04:48.256Z,19.88
2018-04-27T04:05:48.002Z,20.04
2018-04-27T04:06:48.093Z,19.9
2018-04-27T04:07:47.839Z,19.88
2018-04-27T04:08:47.898Z,20.03
2018-04-27T04:09:47.981Z,19.9
2018-04-27T04:10:48.043Z,19.89
2018-04-27T04:11:48.091Z,20.03
2018-04-27T04:12:48.007Z,19.91
2018-04-27T04:13:47.921Z,19.88
2018-04-27T04:14:47.919Z,20.01
2018-04-27T04:15:47.888Z,19.89
2018-04-27T04:16:48.081Z,19.88
2018-04-27T04:17:47.928Z,20.01
2018-04-27T04:18:47.865Z,19.88
2018-04-27T04:19:48.122Z,19.87
2018-04-27T04:20:48.007Z,20.02
2018-04-27T04:21:47.903Z,19.89
2018-04-27T04:22:47.807Z,19.87
2018-04-27T04:23:48.039Z,20.02
2018-04-27T04:24:47.926Z,19.89
2018-04-27T04:25:48.008Z,19.87
2018-04-27T04:26:48.140Z,20.02
2018-04-27T04:27:47.998Z,19.89
2018-04-27T04:28:48.169Z,19.87
2018-04-27T04:29:48.016Z,20.02
2018-04-27T04:30:47.885Z,19.89
2018-04-27T04:31:48.026Z,19.87
2018-04-27T04:32:47.854Z,20.01
2018-04-27T04:33:48.039Z,19.88
2018-04-27T04:34:48.027Z,19.86
2018-04-27T04:35:47.953Z,20
2018-04-27T04:36:48.046Z,19.88
2018-04-27T04:37:48.032Z,19.87
2018-04-27T04:38:48.065Z,20
2018-04-27T04:39:47.913Z,19.88
2018-04-27T04:40:48.097Z,19.86
2018-04-27T04:41:47.787Z,20
2018-04-27T04:42:48.103Z,19.88
2018-04-27T04:43:48.115Z,19.86
2018-04-27T04:44:47.995Z,20.01
2018-04-27T04:45:48.023Z,19.88
2018-04-27T04:46:48.004Z,19.87
2018-04-27T04:47:47.847Z,20.03
2018-04-27T04:48:48.014Z,19.89
2018-04-27T04:49:47.877Z,19.86
2018-04-27T04:50:47.997Z,20.01
2018-04-27T04:51:47.874Z,19.88
2018-04-27T04:52:47.984Z,19.86
2018-04-27T04:53:47.865Z,20
2018-04-27T04:54:47.920Z,19.88
2018-04-27T04:55:47.834Z,19.86
2018-04-27T04:56:47.810Z,20
2018-04-27T04:57:47.972Z,19.88
2018-04-27T04:58:47.813Z,19.83
2018-04-27T04:59:48.100Z,19.99
2018-04-27T05:00:47.875Z,19.88
2018-04-27T05:01:48.037Z,19.86
2018-04-27T05:02:48.528Z,20
2018-04-27T05:03:47.872Z,19.87
2018-04-27T05:04:47.924Z,19.85
2018-04-27T05:05:47.981Z,20
2018-04-27T05:06:48.002Z,19.88
2018-04-27T05:07:47.894Z,19.85
2018-04-27T05:08:48.237Z,20.01
2018-04-27T05:09:47.922Z,19.87
2018-04-27T05:10:48.270Z,19.85
2018-04-27T05:11:48.045Z,20
2018-04-27T05:12:47.955Z,19.88
2018-04-27T05:13:47.902Z,19.85
2018-04-27T05:14:48.265Z,19.99
2018-04-27T05:15:48.011Z,19.88
2018-04-27T05:16:48.058Z,19.85
2018-04-27T05:17:47.852Z,19.99
2018-04-27T05:18:48.044Z,19.88
2018-04-27T05:19:47.814Z,19.86
2018-04-27T05:20:48.118Z,20
2018-04-27T05:21:48.264Z,19.87
2018-04-27T05:22:47.877Z,19.86
2018-04-27T05:23:47.972Z,20.01
2018-04-27T05:24:48.059Z,19.87
2018-04-27T05:25:47.842Z,19.83
2018-04-27T05:26:48.117Z,19.98
2018-04-27T05:27:47.855Z,19.85
2018-04-27T05:28:47.983Z,19.85
2018-04-27T05:29:48.777Z,19.98
2018-04-27T05:30:48.040Z,19.86
2018-04-27T05:31:47.846Z,19.84
2018-04-27T05:32:48.100Z,20
2018-04-27T05:33:47.875Z,19.87
2018-04-27T05:34:47.888Z,19.85
2018-04-27T05:35:47.782Z,20
2018-04-27T05:36:48.285Z,19.87
2018-04-27T05:37:47.808Z,19.86
2018-04-27T05:38:47.889Z,20
2018-04-27T05:39:47.957Z,19.88
2018-04-27T05:40:47.903Z,19.85
2018-04-27T05:41:47.890Z,20
2018-04-27T05:42:48.060Z,19.87
2018-04-27T05:43:47.827Z,19.85
2018-04-27T05:44:47.938Z,20
2018-04-27T05:45:47.893Z,19.88
2018-04-27T05:46:47.959Z,19.85
2018-04-27T05:47:47.932Z,20
2018-04-27T05:48:47.841Z,19.88
2018-04-27T05:49:47.902Z,19.85
2018-04-27T05:50:47.958Z,20
2018-04-27T05:51:47.752Z,19.86
2018-04-27T05:52:48.086Z,19.85
2018-04-27T05:53:48.031Z,19.99
2018-04-27T05:54:47.935Z,19.87
2018-04-27T05:55:47.828Z,19.85
2018-04-27T05:56:47.812Z,20
2018-04-27T05:57:47.783Z,19.87
2018-04-27T05:58:47.887Z,19.85
2018-04-27T05:59:47.925Z,19.99
2018-04-27T06:00:47.916Z,19.86
2018-04-27T06:01:48.022Z,19.84
2018-04-27T06:02:47.877Z,19.99
2018-04-27T06:03:47.918Z,19.87
2018-04-27T06:04:47.842Z,19.85
2018-04-27T06:05:47.865Z,20
2018-04-27T06:06:47.983Z,19.88
2018-04-27T06:07:47.943Z,19.85
2018-04-27T06:08:48.102Z,20
2018-04-27T06:09:47.923Z,19.88
2018-04-27T06:10:47.963Z,19.85
2018-04-27T06:11:47.998Z,20
2018-04-27T06:12:48.008Z,19.87
2018-04-27T06:13:47.883Z,19.85
2018-04-27T06:14:47.865Z,19.99
2018-04-27T06:15:47.837Z,19.86
2018-04-27T06:16:47.778Z,19.84
2018-04-27T06:17:47.817Z,20
2018-04-27T06:18:47.942Z,19.87
2018-04-27T06:19:47.851Z,19.84
2018-04-27T06:20:47.872Z,20
2018-04-27T06:21:47.788Z,19.88
2018-04-27T06:22:47.893Z,19.85
2018-04-27T06:23:48.034Z,20
2018-04-27T06:24:47.979Z,19.87
2018-04-27T06:25:48.789Z,19.85
2018-04-27T06:26:47.928Z,20
2018-04-27T06:27:47.929Z,19.88
2018-04-27T06:28:48.148Z,19.86
2018-04-27T06:29:47.781Z,20
2018-04-27T06:30:48.046Z,19.87
2018-04-27T06:31:48.241Z,19.85
2018-04-27T06:32:47.968Z,20
2018-04-27T06:33:47.805Z,19.87
2018-04-27T06:34:47.906Z,19.85
2018-04-27T06:35:47.844Z,20
2018-04-27T06:36:47.913Z,19.88
2018-04-27T06:37:47.897Z,19.86
2018-04-27T06:38:47.887Z,20
2018-04-27T06:39:47.810Z,19.87
2018-04-27T06:40:47.783Z,19.85
2018-04-27T06:41:47.890Z,20
2018-04-27T06:42:47.740Z,19.87
2018-04-27T06:43:48.037Z,19.84
2018-04-27T06:44:48.022Z,19.99
2018-04-27T06:45:48.102Z,19.86
2018-04-27T06:46:50.461Z,19.84
2018-04-27T06:47:48.057Z,19.98
2018-04-27T06:48:48.630Z,19.87
2018-04-27T06:49:47.920Z,19.86
2018-04-27T06:50:48.035Z,19.99
2018-04-27T06:51:47.759Z,19.88
2018-04-27T06:52:47.870Z,19.85
2018-04-27T06:53:48.211Z,20
2018-04-27T06:54:47.931Z,19.87
2018-04-27T06:55:48.056Z,19.85
2018-04-27T06:56:47.851Z,20
2018-04-27T06:57:48.031Z,19.88
2018-04-27T06:58:47.902Z,19.85
2018-04-27T06:59:47.933Z,20
2018-04-27T07:00:47.854Z,19.87
2018-04-27T07:01:48.220Z,19.85
2018-04-27T07:02:48.065Z,20
2018-04-27T07:03:48.402Z,19.88
2018-04-27T07:04:47.957Z,19.85
2018-04-27T07:05:47.764Z,20
2018-04-27T07:06:47.799Z,19.87
2018-04-27T07:07:47.839Z,19.85
2018-04-27T07:08:47.967Z,20
2018-04-27T07:09:47.982Z,19.88
2018-04-27T07:10:47.993Z,19.84
2018-04-27T07:11:47.940Z,20
2018-04-27T07:12:47.928Z,19.87
2018-04-27T07:13:48.061Z,19.84
2018-04-27T07:14:47.908Z,20
2018-04-27T07:15:47.884Z,19.88
2018-04-27T07:16:48.315Z,19.87
2018-04-27T07:17:48.268Z,20
2018-04-27T07:18:48.106Z,19.87
2018-04-27T07:19:47.851Z,19.85
2018-04-27T07:20:47.885Z,20
2018-04-27T07:21:47.998Z,19.87
2018-04-27T07:22:48.565Z,19.84
2018-04-27T07:23:47.884Z,20
2018-04-27T07:24:47.785Z,19.87
2018-04-27T07:25:48.246Z,19.84
2018-04-27T07:26:47.740Z,19.98
2018-04-27T07:27:48.024Z,19.87
2018-04-27T07:28:47.889Z,19.85
2018-04-27T07:29:47.799Z,20
2018-04-27T07:30:47.743Z,19.86
2018-04-27T07:31:47.875Z,19.84
2018-04-27T07:32:47.786Z,20
2018-04-27T07:33:47.912Z,19.87
2018-04-27T07:34:47.787Z,19.84
2018-04-27T07:35:47.968Z,20
2018-04-27T07:36:47.931Z,19.86
2018-04-27T07:37:47.906Z,19.84
2018-04-27T07:38:47.925Z,19.99
2018-04-27T07:39:48.012Z,19.87
2018-04-27T07:40:48.013Z,19.84
2018-04-27T07:41:47.832Z,19.99
2018-04-27T07:42:47.810Z,19.86
2018-04-27T07:43:49.814Z,19.84
2018-04-27T07:44:47.959Z,20
2018-04-27T07:45:47.844Z,19.86
2018-04-27T07:46:48.007Z,19.85
2018-04-27T07:47:47.938Z,19.99
2018-04-27T07:48:47.934Z,19.87
2018-04-27T07:49:47.957Z,19.85
2018-04-27T07:50:47.953Z,19.99
2018-04-27T07:51:47.787Z,19.87
2018-04-27T07:52:47.871Z,19.86
2018-04-27T07:53:47.844Z,19.99
2018-04-27T07:54:47.996Z,19.87
2018-04-27T07:55:47.959Z,19.84
2018-04-27T07:56:47.771Z,19.98
2018-04-27T07:57:48.147Z,19.86
2018-04-27T07:58:47.893Z,19.84
2018-04-27T07:59:47.858Z,19.99
2018-04-27T08:00:47.941Z,19.86
2018-04-27T08:01:47.910Z,19.83
2018-04-27T08:02:48.123Z,19.98
2018-04-27T08:03:48.072Z,19.86
2018-04-27T08:04:47.818Z,19.85
2018-04-27T08:05:47.914Z,20
2018-04-27T08:06:48.072Z,19.87
2018-04-27T08:07:47.899Z,19.85
2018-04-27T08:08:48.587Z,20
2018-04-27T08:09:47.848Z,19.88
2018-04-27T08:10:48.074Z,19.85
2018-04-27T08:11:47.867Z,20
2018-04-27T08:12:47.918Z,19.87
2018-04-27T08:13:47.878Z,19.85
2018-04-27T08:14:47.995Z,19.99
2018-04-27T08:15:47.865Z,19.86
2018-04-27T08:16:47.855Z,19.85
2018-04-27T08:17:48.032Z,19.99
2018-04-27T08:18:48.126Z,19.86
2018-04-27T08:19:47.886Z,19.84
2018-04-27T08:20:48.055Z,20
2018-04-27T08:21:48.067Z,19.87
2018-04-27T08:22:48.077Z,19.86
2018-04-27T08:23:48.065Z,20
2018-04-27T08:24:48.032Z,19.88
2018-04-27T08:25:47.842Z,19.84
2018-04-27T08:26:48.004Z,20
2018-04-27T08:27:47.795Z,19.86
2018-04-27T08:28:48.019Z,19.84
2018-04-27T08:29:47.973Z,19.99
2018-04-27T08:30:48.062Z,19.86
2018-04-27T08:31:47.912Z,19.84
2018-04-27T08:32:48.047Z,19.99
2018-04-27T08:33:47.940Z,19.82
2018-04-27T08:34:47.920Z,19.95
2018-04-27T08:35:47.963Z,20.15
2018-04-27T08:36:47.901Z,20.01
2018-04-27T08:37:47.907Z,20
2018-04-27T08:38:50.367Z,20.18
2018-04-27T08:39:47.846Z,20.09
2018-04-27T08:40:48.045Z,20.09
2018-04-27T08:41:47.884Z,20.23
2018-04-27T08:42:47.800Z,20.13
2018-04-27T08:43:48.458Z,20.12
2018-04-27T08:44:47.819Z,20.24
2018-04-27T08:45:47.779Z,20.12
2018-04-27T08:46:47.829Z,20.11
2018-04-27T08:47:48.664Z,20.26
2018-04-27T08:48:48.028Z,20.13
2018-04-27T08:49:47.983Z,20.12
2018-04-27T08:50:47.855Z,20.29
2018-04-27T08:51:47.865Z,20.12
2018-04-27T08:52:47.992Z,20.1
2018-04-27T08:53:47.811Z,20.26
2018-04-27T08:54:47.775Z,20.14
2018-04-27T08:55:47.755Z,20.13
2018-04-27T08:56:48.029Z,20.28
2018-04-27T08:57:47.900Z,20.15
2018-04-27T08:58:47.902Z,20.11
2018-04-27T08:59:47.901Z,20.27
2018-04-27T09:00:48.083Z,20.14
2018-04-27T09:01:47.826Z,20.13
2018-04-27T09:02:48.471Z,20.29
2018-04-27T09:03:47.885Z,20.18
2018-04-27T09:04:48.014Z,20.13
2018-04-27T09:05:47.909Z,20.28
2018-04-27T09:06:47.902Z,20.18
2018-04-27T09:07:47.845Z,20.16
2018-04-27T09:08:47.963Z,20.32
2018-04-27T09:09:47.841Z,20.17
2018-04-27T09:10:47.800Z,20.13
2018-04-27T09:11:48.081Z,20.29
2018-04-27T09:12:47.799Z,20.17
2018-04-27T09:13:47.856Z,20.16
2018-04-27T09:14:48.032Z,20.3
2018-04-27T09:15:48.042Z,20.17
2018-04-27T09:16:47.991Z,20.14
2018-04-27T09:17:47.862Z,20.29
2018-04-27T09:18:47.866Z,20.2
2018-04-27T09:19:47.939Z,20.17
2018-04-27T09:20:48.119Z,20.31
2018-04-27T09:21:47.758Z,20.18
2018-04-27T09:22:47.824Z,20.15
2018-04-27T09:23:47.917Z,20.31
2018-04-27T09:24:47.849Z,20.14
2018-04-27T09:25:47.886Z,20.07
2018-04-27T09:26:48.149Z,20.29
2018-04-27T09:27:48.067Z,20.12
2018-04-27T09:28:47.915Z,20.06
2018-04-27T09:29:48.075Z,20.19
2018-04-27T09:30:47.794Z,20.04
2018-04-27T09:31:47.831Z,19.99
2018-04-27T09:32:48.021Z,20.15
2018-04-27T09:33:48.089Z,20.06
2018-04-27T09:34:47.996Z,19.97
2018-04-27T09:35:48.084Z,20.11
2018-04-27T09:36:47.900Z,20
2018-04-27T09:37:48.069Z,19.97
2018-04-27T09:38:48.031Z,20.12
2018-04-27T09:39:48.145Z,19.97
2018-04-27T09:40:47.991Z,20
2018-04-27T09:41:47.749Z,20.12
2018-04-27T09:42:47.973Z,19.94
2018-04-27T09:43:48.062Z,19.92
2018-04-27T09:44:48.536Z,20.06
2018-04-27T09:45:47.925Z,19.98
2018-04-27T09:46:48.007Z,19.97
2018-04-27T09:47:47.901Z,20.12
2018-04-27T09:48:48.111Z,20
2018-04-27T09:49:47.903Z,20.03
2018-04-27T09:50:48.509Z,20.16
2018-04-27T09:51:47.970Z,20.06
2018-04-27T09:52:48.034Z,20.04
2018-04-27T09:53:48.021Z,20.18
2018-04-27T09:54:49.328Z,20.07
2018-04-27T09:55:47.949Z,20.06
2018-04-27T09:56:47.968Z,20.19
2018-04-27T09:57:48.036Z,20.08
2018-04-27T09:58:50.632Z,20.06
2018-04-27T09:59:47.946Z,20.2
2018-04-27T10:00:47.939Z,20.06
2018-04-27T10:01:48.016Z,20.04
2018-04-27T10:02:47.852Z,20.21
2018-04-27T10:03:47.960Z,20.1
2018-04-27T10:04:47.872Z,20.07
2018-04-27T10:05:48.577Z,20.21
2018-04-27T10:06:47.909Z,20.07
2018-04-27T10:07:47.965Z,20.05
2018-04-27T10:08:48.126Z,20.2
2018-04-27T10:09:50.562Z,20.09
2018-04-27T10:10:47.918Z,20.07
2018-04-27T10:11:48.059Z,20.19
2018-04-27T10:12:47.917Z,20.06
2018-04-27T10:13:47.893Z,20.05
2018-04-27T10:14:47.850Z,20.2
2018-04-27T10:15:47.866Z,20.06
2018-04-27T10:16:47.915Z,20.05
2018-04-27T10:17:47.792Z,20.18
2018-04-27T10:18:47.979Z,20.06
2018-04-27T10:19:47.997Z,20.04
2018-04-27T10:20:47.875Z,20.18
2018-04-27T10:21:47.933Z,20.05
2018-04-27T10:22:47.806Z,20.03
2018-04-27T10:23:47.905Z,20.17
2018-04-27T10:24:48.035Z,20.04
2018-04-27T10:25:47.996Z,20.02
2018-04-27T10:26:48.024Z,20.16
2018-04-27T10:27:47.886Z,20.03
2018-04-27T10:28:47.915Z,20.01
2018-04-27T10:29:47.926Z,20.15
2018-04-27T10:30:48.232Z,20.03
2018-04-27T10:31:47.840Z,20
2018-04-27T10:32:47.870Z,20.14
2018-04-27T10:33:47.981Z,20.01
2018-04-27T10:34:47.970Z,20.21
2018-04-27T10:35:48.291Z,20.24
2018-04-27T10:36:48.279Z,20.12
2018-04-27T10:37:47.999Z,20.08
2018-04-27T10:38:47.723Z,20.19
2018-04-27T10:39:48.258Z,20.12
2018-04-27T10:40:48.258Z,20.1
2018-04-27T10:41:47.803Z,20.21
2018-04-27T10:42:47.740Z,20.07
2018-04-27T10:43:47.834Z,20.06
2018-04-27T10:44:48.687Z,20.19
2018-04-27T10:45:47.833Z,20.05
2018-04-27T10:46:47.929Z,20.06
2018-04-27T10:47:48.035Z,20.23
2018-04-27T10:48:47.891Z,20.13
2018-04-27T10:49:48.039Z,20.16
2018-04-27T10:50:48.055Z,20.29
2018-04-27T10:51:47.995Z,20.14
2018-04-27T10:52:47.866Z,20.12
2018-04-27T10:53:47.901Z,20.25
2018-04-27T10:54:47.963Z,20.16
2018-04-27T10:55:48.051Z,20.13
2018-04-27T10:56:47.964Z,20.27
2018-04-27T10:57:47.914Z,20.16
2018-04-27T10:58:47.784Z,20.13
2018-04-27T10:59:47.995Z,20.25
2018-04-27T11:00:47.928Z,20.18
2018-04-27T11:01:47.738Z,20.18
2018-04-27T11:02:47.765Z,20.34
2018-04-27T11:03:47.874Z,20.23
2018-04-27T11:04:48.072Z,20.21
2018-04-27T11:05:47.895Z,20.35
2018-04-27T11:06:47.886Z,20.24
2018-04-27T11:07:47.858Z,20.25
2018-04-27T11:08:48.008Z,20.39
2018-04-27T11:09:47.765Z,20.28
2018-04-27T11:10:47.974Z,20.29
2018-04-27T11:11:47.912Z,20.41
2018-04-27T11:12:48.011Z,20.28
2018-04-27T11:13:47.993Z,20.28
2018-04-27T11:14:47.921Z,20.41
2018-04-27T11:15:47.854Z,20.3
2018-04-27T11:16:48.569Z,20.26
2018-04-27T11:17:48.067Z,20.38
2018-04-27T11:18:47.876Z,20.27
2018-04-27T11:19:47.924Z,20.25
2018-04-27T11:20:47.810Z,20.35
2018-04-27T11:21:47.737Z,20.27
2018-04-27T11:22:47.850Z,20.25
2018-04-27T11:23:47.882Z,20.36
2018-04-27T11:24:47.868Z,20.28
2018-04-27T11:25:48.066Z,20.25
2018-04-27T11:26:47.943Z,20.35
2018-04-27T11:27:47.794Z,20.28
2018-04-27T11:28:48.627Z,20.25
2018-04-27T11:29:47.909Z,20.37
2018-04-27T11:30:47.995Z,20.28
2018-04-27T11:31:47.917Z,20.27
2018-04-27T11:32:47.871Z,20.39
2018-04-27T11:33:47.839Z,20.3
2018-04-27T11:34:48.033Z,20.24
2018-04-27T11:35:47.721Z,20.37
2018-04-27T11:36:47.921Z,20.26
2018-04-27T11:37:47.800Z,20.27
2018-04-27T11:38:47.837Z,20.4
2018-04-27T11:39:47.760Z,20.28
2018-04-27T11:40:47.973Z,20.24
2018-04-27T11:41:48.025Z,20.36
2018-04-27T11:42:47.910Z,20.27
2018-04-27T11:43:47.983Z,20.25
2018-04-27T11:44:47.951Z,20.41
2018-04-27T11:45:47.827Z,20.28
2018-04-27T11:46:47.916Z,20.23
2018-04-27T11:47:48.240Z,20.34
2018-04-27T11:48:47.896Z,20.24
2018-04-27T11:49:47.838Z,20.22
2018-04-27T11:50:47.952Z,20.33
2018-04-27T11:51:48.066Z,20.24
2018-04-27T11:52:47.976Z,20.23
2018-04-27T11:53:47.896Z,20.35
2018-04-27T11:54:47.838Z,20.25
2018-04-27T11:55:48.007Z,20.27
2018-04-27T11:56:47.896Z,20.34
2018-04-27T11:57:47.882Z,20.24
2018-04-27T11:58:47.677Z,20.23
2018-04-27T11:59:47.985Z,20.35
2018-04-27T12:00:48.161Z,20.27
2018-04-27T12:01:48.754Z,20.26
2018-04-27T12:02:47.842Z,20.35
2018-04-27T12:03:48.176Z,20.24
2018-04-27T12:04:47.948Z,20.24
2018-04-27T12:05:47.921Z,20.36
2018-04-27T12:06:47.873Z,20.24
2018-04-27T12:07:47.826Z,20.22
2018-04-27T12:08:47.939Z,20.35
2018-04-27T12:09:47.956Z,20.24
2018-04-27T12:10:47.839Z,20.22
2018-04-27T12:11:50.531Z,20.34
2018-04-27T12:12:47.866Z,20.24
2018-04-27T12:13:47.847Z,20.2
2018-04-27T12:14:47.787Z,20.32
2018-04-27T12:15:47.941Z,20.22
2018-04-27T12:16:47.989Z,20.18
2018-04-27T12:17:47.779Z,20.35
2018-04-27T12:18:47.942Z,20.23
2018-04-27T12:19:47.833Z,20.2
2018-04-27T12:20:47.883Z,20.32
2018-04-27T12:21:47.717Z,20.2
2018-04-27T12:22:47.916Z,20.18
2018-04-27T12:23:47.875Z,20.32
2018-04-27T12:24:48.036Z,20.21
2018-04-27T12:25:47.762Z,20.18
2018-04-27T12:26:47.990Z,20.3
2018-04-27T12:27:47.760Z,20.18
2018-04-27T12:28:47.897Z,20.15
2018-04-27T12:29:48.693Z,20.29
2018-04-27T12:30:48.280Z,20.14
2018-04-27T12:31:49.244Z,20.12
2018-04-27T12:32:48.007Z,20.28
2018-04-27T12:33:47.853Z,20.14
2018-04-27T12:34:47.879Z,20.11
2018-04-27T12:35:47.921Z,20.26
2018-04-27T12:36:47.766Z,20.12
2018-04-27T12:37:47.927Z,20.09
2018-04-27T12:38:48.370Z,20.24
2018-04-27T12:39:47.853Z,20.1
2018-04-27T12:40:47.924Z,20.09
2018-04-27T12:41:47.904Z,20.24
2018-04-27T12:42:48.018Z,20.1
2018-04-27T12:43:47.683Z,20.08
2018-04-27T12:44:47.970Z,20.22
2018-04-27T12:45:47.859Z,20.1
2018-04-27T12:46:47.850Z,20.07
2018-04-27T12:47:48.001Z,20.21
2018-04-27T12:48:47.956Z,20.1
2018-04-27T12:49:47.941Z,20.07
2018-04-27T12:50:47.835Z,20.22
2018-04-27T12:51:47.808Z,20.09
2018-04-27T12:52:47.837Z,20.06
2018-04-27T12:53:47.919Z,20.2
2018-04-27T12:54:47.862Z,20.08
2018-04-27T12:55:47.731Z,20.06
2018-04-27T12:56:47.988Z,20.2
2018-04-27T12:57:48.000Z,20.06
2018-04-27T12:58:47.933Z,20.05
2018-04-27T12:59:47.960Z,20.2
2018-04-27T13:00:47.808Z,20.06
2018-04-27T13:01:47.859Z,20.05
2018-04-27T13:02:47.917Z,20.19
2018-04-27T13:03:47.792Z,20.06
2018-04-27T13:04:47.820Z,20.05
2018-04-27T13:05:48.058Z,20.19
2018-04-27T13:06:47.776Z,20.06
2018-04-27T13:07:47.982Z,20.03
2018-04-27T13:08:47.799Z,20.18
2018-04-27T13:09:47.909Z,20.05
2018-04-27T13:10:47.676Z,20.03